sensor_id;sensor_type;location;lat;lon;timestamp;temperature;humidity
516;DHT22;244;48.508;9.052;2023-05-10T00:02:03;15.60;33.00
516;DHT22;244;48.508;9.052;2023-05-10T00:04:31;15.60;33.10
516;DHT22;244;48.508;9.052;2023-05-10T00:06:58;15.60;32.90
516;DHT22;244;48.508;9.052;2023-05-10T00:09:25;15.50;33.00
516;DHT22;244;48.508;9.052;2023-05-10T00:11:52;15.50;32.90
516;DHT22;244;48.508;9.052;2023-05-10T00:14:20;15.50;33.20
516;DHT22;244;48.508;9.052;2023-05-10T00:16:47;15.40;33.00
516;DHT22;244;48.508;9.052;2023-05-10T00:19:20;15.40;33.20
516;DHT22;244;48.508;9.052;2023-05-10T00:21:47;15.40;33.30
516;DHT22;244;48.508;9.052;2023-05-10T00:24:14;15.30;33.30
516;DHT22;244;48.508;9.052;2023-05-10T00:26:47;15.30;33.30
516;DHT22;244;48.508;9.052;2023-05-10T00:29:14;15.30;33.50
516;DHT22;244;48.508;9.052;2023-05-10T00:31:42;15.20;33.50
516;DHT22;244;48.508;9.052;2023-05-10T00:34:09;15.20;33.60
516;DHT22;244;48.508;9.052;2023-05-10T00:36:36;15.10;33.60
516;DHT22;244;48.508;9.052;2023-05-10T00:39:03;15.10;33.70
516;DHT22;244;48.508;9.052;2023-05-10T00:41:44;15.10;33.80
516;DHT22;244;48.508;9.052;2023-05-10T00:44:13;15.00;33.60
516;DHT22;244;48.508;9.052;2023-05-10T00:46:44;15.00;33.70
516;DHT22;244;48.508;9.052;2023-05-10T00:49:25;14.90;33.80
516;DHT22;244;48.508;9.052;2023-05-10T00:51:57;14.90;34.20
516;DHT22;244;48.508;9.052;2023-05-10T00:54:24;14.90;34.30
516;DHT22;244;48.508;9.052;2023-05-10T00:56:52;14.90;34.00
516;DHT22;244;48.508;9.052;2023-05-10T00:59:19;14.90;34.10
516;DHT22;244;48.508;9.052;2023-05-10T01:01:50;14.90;34.20
516;DHT22;244;48.508;9.052;2023-05-10T01:04:17;14.90;34.40
516;DHT22;244;48.508;9.052;2023-05-10T01:06:51;14.90;34.30
516;DHT22;244;48.508;9.052;2023-05-10T01:09:18;14.80;34.00
516;DHT22;244;48.508;9.052;2023-05-10T01:11:46;14.80;34.00
516;DHT22;244;48.508;9.052;2023-05-10T01:14:15;14.70;34.30
516;DHT22;244;48.508;9.052;2023-05-10T01:16:45;14.80;34.60
516;DHT22;244;48.508;9.052;2023-05-10T01:19:18;14.80;34.50
516;DHT22;244;48.508;9.052;2023-05-10T01:21:53;14.70;34.30
516;DHT22;244;48.508;9.052;2023-05-10T01:24:40;14.70;34.50
516;DHT22;244;48.508;9.052;2023-05-10T01:30:44;14.70;34.60
516;DHT22;244;48.508;9.052;2023-05-10T01:33:19;14.70;34.40
516;DHT22;244;48.508;9.052;2023-05-10T01:35:53;14.70;35.30
516;DHT22;244;48.508;9.052;2023-05-10T01:38:27;14.70;34.40
516;DHT22;244;48.508;9.052;2023-05-10T01:41:02;14.70;34.40
516;DHT22;244;48.508;9.052;2023-05-10T01:43:37;14.70;34.40
516;DHT22;244;48.508;9.052;2023-05-10T01:46:09;14.70;34.40
516;DHT22;244;48.508;9.052;2023-05-10T01:48:48;14.70;34.60
516;DHT22;244;48.508;9.052;2023-05-10T01:51:23;14.70;34.50
516;DHT22;244;48.508;9.052;2023-05-10T01:53:56;14.80;34.50
516;DHT22;244;48.508;9.052;2023-05-10T01:56:28;14.80;34.40
516;DHT22;244;48.508;9.052;2023-05-10T01:58:56;14.70;34.30
516;DHT22;244;48.508;9.052;2023-05-10T02:01:25;14.70;34.40
516;DHT22;244;48.508;9.052;2023-05-10T02:03:55;14.80;34.40
516;DHT22;244;48.508;9.052;2023-05-10T02:06:24;14.80;34.10
516;DHT22;244;48.508;9.052;2023-05-10T02:08:52;14.80;34.00
516;DHT22;244;48.508;9.052;2023-05-10T02:11:20;14.70;34.10
516;DHT22;244;48.508;9.052;2023-05-10T02:13:49;14.70;33.90
516;DHT22;244;48.508;9.052;2023-05-10T02:16:17;14.70;33.90
516;DHT22;244;48.508;9.052;2023-05-10T02:18:45;14.60;33.80
516;DHT22;244;48.508;9.052;2023-05-10T02:21:14;14.60;33.80
516;DHT22;244;48.508;9.052;2023-05-10T02:23:43;14.60;33.80
516;DHT22;244;48.508;9.052;2023-05-10T02:26:11;14.60;33.70
516;DHT22;244;48.508;9.052;2023-05-10T02:28:40;14.50;33.60
516;DHT22;244;48.508;9.052;2023-05-10T02:31:08;14.50;33.70
516;DHT22;244;48.508;9.052;2023-05-10T02:33:37;14.50;33.90
516;DHT22;244;48.508;9.052;2023-05-10T02:36:07;14.50;34.00
516;DHT22;244;48.508;9.052;2023-05-10T02:38:36;14.50;33.90
516;DHT22;244;48.508;9.052;2023-05-10T02:41:05;14.60;34.00
516;DHT22;244;48.508;9.052;2023-05-10T02:43:35;14.50;33.70
516;DHT22;244;48.508;9.052;2023-05-10T02:46:02;14.50;33.70
516;DHT22;244;48.508;9.052;2023-05-10T02:48:29;14.50;33.50
516;DHT22;244;48.508;9.052;2023-05-10T02:51:06;14.40;33.60
516;DHT22;244;48.508;9.052;2023-05-10T02:53:36;14.40;33.50
516;DHT22;244;48.508;9.052;2023-05-10T02:56:11;14.40;33.50
516;DHT22;244;48.508;9.052;2023-05-10T02:58:39;14.30;33.40
516;DHT22;244;48.508;9.052;2023-05-10T03:01:06;14.30;33.70
516;DHT22;244;48.508;9.052;2023-05-10T03:03:34;14.20;33.90
516;DHT22;244;48.508;9.052;2023-05-10T03:06:01;14.30;34.30
516;DHT22;244;48.508;9.052;2023-05-10T03:08:28;14.30;34.10
516;DHT22;244;48.508;9.052;2023-05-10T03:11:07;14.30;34.10
516;DHT22;244;48.508;9.052;2023-05-10T03:13:39;14.40;34.10
516;DHT22;244;48.508;9.052;2023-05-10T03:16:12;14.40;34.20
516;DHT22;244;48.508;9.052;2023-05-10T03:18:44;14.40;34.10
516;DHT22;244;48.508;9.052;2023-05-10T03:21:17;14.50;34.10
516;DHT22;244;48.508;9.052;2023-05-10T03:23:47;14.50;33.90
516;DHT22;244;48.508;9.052;2023-05-10T03:26:24;14.50;33.70
516;DHT22;244;48.508;9.052;2023-05-10T03:28:53;14.60;33.70
516;DHT22;244;48.508;9.052;2023-05-10T03:31:20;14.60;33.70
516;DHT22;244;48.508;9.052;2023-05-10T03:33:48;14.60;33.60
516;DHT22;244;48.508;9.052;2023-05-10T03:36:15;14.60;33.40
516;DHT22;244;48.508;9.052;2023-05-10T03:38:42;14.60;33.40
516;DHT22;244;48.508;9.052;2023-05-10T03:41:09;14.60;33.40
516;DHT22;244;48.508;9.052;2023-05-10T03:43:37;14.60;33.20
516;DHT22;244;48.508;9.052;2023-05-10T03:46:05;14.60;33.20
516;DHT22;244;48.508;9.052;2023-05-10T03:48:32;14.60;33.20
516;DHT22;244;48.508;9.052;2023-05-10T03:50:59;14.60;33.20
516;DHT22;244;48.508;9.052;2023-05-10T03:53:26;14.60;33.10
516;DHT22;244;48.508;9.052;2023-05-10T03:55:53;14.60;33.20
516;DHT22;244;48.508;9.052;2023-05-10T03:58:20;14.60;33.20
516;DHT22;244;48.508;9.052;2023-05-10T04:00:48;14.70;34.10
516;DHT22;244;48.508;9.052;2023-05-10T04:03:15;14.70;33.20
516;DHT22;244;48.508;9.052;2023-05-10T04:05:42;14.70;33.30
516;DHT22;244;48.508;9.052;2023-05-10T04:08:09;14.70;33.30
516;DHT22;244;48.508;9.052;2023-05-10T04:10:36;14.70;33.30
516;DHT22;244;48.508;9.052;2023-05-10T04:13:03;14.70;33.30
516;DHT22;244;48.508;9.052;2023-05-10T04:15:30;14.80;33.40
516;DHT22;244;48.508;9.052;2023-05-10T04:17:58;14.80;33.40
516;DHT22;244;48.508;9.052;2023-05-10T04:20:25;14.80;33.40
516;DHT22;244;48.508;9.052;2023-05-10T04:22:52;14.80;33.20
516;DHT22;244;48.508;9.052;2023-05-10T04:25:19;14.80;33.00
516;DHT22;244;48.508;9.052;2023-05-10T04:27:46;14.80;32.80
516;DHT22;244;48.508;9.052;2023-05-10T04:30:13;14.70;33.40
516;DHT22;244;48.508;9.052;2023-05-10T04:32:40;14.70;32.60
516;DHT22;244;48.508;9.052;2023-05-10T04:35:09;14.70;32.70
516;DHT22;244;48.508;9.052;2023-05-10T04:37:36;14.70;32.60
516;DHT22;244;48.508;9.052;2023-05-10T04:40:04;14.70;32.70
516;DHT22;244;48.508;9.052;2023-05-10T04:42:31;14.60;33.00
516;DHT22;244;48.508;9.052;2023-05-10T04:44:58;14.60;33.20
516;DHT22;244;48.508;9.052;2023-05-10T04:47:25;14.60;33.40
516;DHT22;244;48.508;9.052;2023-05-10T04:49:52;14.60;33.40
516;DHT22;244;48.508;9.052;2023-05-10T04:52:20;14.60;33.50
516;DHT22;244;48.508;9.052;2023-05-10T04:54:47;14.60;33.70
516;DHT22;244;48.508;9.052;2023-05-10T04:57:14;14.60;33.60
516;DHT22;244;48.508;9.052;2023-05-10T04:59:41;14.60;33.80
516;DHT22;244;48.508;9.052;2023-05-10T05:02:09;14.60;33.80
516;DHT22;244;48.508;9.052;2023-05-10T05:04:36;14.60;33.90
516;DHT22;244;48.508;9.052;2023-05-10T05:07:02;14.60;34.00
516;DHT22;244;48.508;9.052;2023-05-10T05:09:31;14.60;34.00
516;DHT22;244;48.508;9.052;2023-05-10T05:11:58;14.70;34.00
516;DHT22;244;48.508;9.052;2023-05-10T05:14:25;14.70;34.10
516;DHT22;244;48.508;9.052;2023-05-10T05:16:52;14.70;34.20
516;DHT22;244;48.508;9.052;2023-05-10T05:19:19;14.80;34.10
516;DHT22;244;48.508;9.052;2023-05-10T05:21:46;14.80;34.10
516;DHT22;244;48.508;9.052;2023-05-10T05:24:13;14.80;34.30
516;DHT22;244;48.508;9.052;2023-05-10T05:26:41;14.80;34.20
516;DHT22;244;48.508;9.052;2023-05-10T05:29:08;14.80;33.80
516;DHT22;244;48.508;9.052;2023-05-10T05:31:35;14.80;34.10
516;DHT22;244;48.508;9.052;2023-05-10T05:34:02;14.80;34.00
516;DHT22;244;48.508;9.052;2023-05-10T05:36:29;14.80;34.80
516;DHT22;244;48.508;9.052;2023-05-10T05:38:56;14.70;33.90
516;DHT22;244;48.508;9.052;2023-05-10T05:41:23;14.70;33.90
516;DHT22;244;48.508;9.052;2023-05-10T05:43:52;14.70;34.00
516;DHT22;244;48.508;9.052;2023-05-10T05:46:19;14.70;34.20
516;DHT22;244;48.508;9.052;2023-05-10T05:48:45;14.70;34.50
516;DHT22;244;48.508;9.052;2023-05-10T05:51:12;14.70;34.40
516;DHT22;244;48.508;9.052;2023-05-10T05:53:39;14.70;34.50
516;DHT22;244;48.508;9.052;2023-05-10T05:56:06;14.80;34.60
516;DHT22;244;48.508;9.052;2023-05-10T05:58:34;14.80;34.70
516;DHT22;244;48.508;9.052;2023-05-10T06:01:03;14.90;34.50
516;DHT22;244;48.508;9.052;2023-05-10T06:03:30;14.90;34.30
516;DHT22;244;48.508;9.052;2023-05-10T06:05:57;15.00;34.20
516;DHT22;244;48.508;9.052;2023-05-10T06:08:23;15.00;34.30
516;DHT22;244;48.508;9.052;2023-05-10T06:10:51;15.00;34.30
516;DHT22;244;48.508;9.052;2023-05-10T06:13:18;15.10;34.60
516;DHT22;244;48.508;9.052;2023-05-10T06:15:45;15.20;34.50
516;DHT22;244;48.508;9.052;2023-05-10T06:18:13;15.30;34.60
516;DHT22;244;48.508;9.052;2023-05-10T06:20:41;15.40;34.70
516;DHT22;244;48.508;9.052;2023-05-10T06:23:08;15.50;34.60
516;DHT22;244;48.508;9.052;2023-05-10T06:25:35;15.60;34.50
516;DHT22;244;48.508;9.052;2023-05-10T06:28:02;15.70;34.20
516;DHT22;244;48.508;9.052;2023-05-10T06:30:29;15.70;34.10
516;DHT22;244;48.508;9.052;2023-05-10T06:32:56;15.80;34.10
516;DHT22;244;48.508;9.052;2023-05-10T06:35:24;15.80;33.90
516;DHT22;244;48.508;9.052;2023-05-10T06:37:51;15.90;34.10
516;DHT22;244;48.508;9.052;2023-05-10T06:40:18;15.90;34.10
516;DHT22;244;48.508;9.052;2023-05-10T06:42:46;15.90;34.30
516;DHT22;244;48.508;9.052;2023-05-10T06:45:13;15.90;34.50
516;DHT22;244;48.508;9.052;2023-05-10T06:47:40;15.90;34.40
516;DHT22;244;48.508;9.052;2023-05-10T06:50:08;15.90;34.40
516;DHT22;244;48.508;9.052;2023-05-10T06:52:38;15.90;34.30
516;DHT22;244;48.508;9.052;2023-05-10T06:55:06;15.90;34.30
516;DHT22;244;48.508;9.052;2023-05-10T06:57:33;15.90;34.80
516;DHT22;244;48.508;9.052;2023-05-10T07:00:01;15.80;34.50
516;DHT22;244;48.508;9.052;2023-05-10T07:02:29;15.80;34.90
516;DHT22;244;48.508;9.052;2023-05-10T07:04:56;15.80;34.50
516;DHT22;244;48.508;9.052;2023-05-10T07:07:23;15.70;34.40
516;DHT22;244;48.508;9.052;2023-05-10T07:09:52;15.60;34.30
516;DHT22;244;48.508;9.052;2023-05-10T07:12:19;15.60;34.20
516;DHT22;244;48.508;9.052;2023-05-10T07:14:45;15.60;34.40
516;DHT22;244;48.508;9.052;2023-05-10T07:17:12;15.50;34.10
516;DHT22;244;48.508;9.052;2023-05-10T07:19:39;15.50;34.60
516;DHT22;244;48.508;9.052;2023-05-10T07:22:06;15.60;34.70
516;DHT22;244;48.508;9.052;2023-05-10T07:24:34;15.60;34.90
516;DHT22;244;48.508;9.052;2023-05-10T07:27:02;15.70;35.00
516;DHT22;244;48.508;9.052;2023-05-10T07:29:29;15.80;34.90
516;DHT22;244;48.508;9.052;2023-05-10T07:31:56;15.90;34.90
516;DHT22;244;48.508;9.052;2023-05-10T07:34:23;15.90;34.90
516;DHT22;244;48.508;9.052;2023-05-10T07:36:51;16.00;35.10
516;DHT22;244;48.508;9.052;2023-05-10T07:39:18;16.00;35.10
516;DHT22;244;48.508;9.052;2023-05-10T07:41:46;16.10;35.60
516;DHT22;244;48.508;9.052;2023-05-10T07:44:14;16.30;34.50
516;DHT22;244;48.508;9.052;2023-05-10T07:46:43;16.20;34.30
516;DHT22;244;48.508;9.052;2023-05-10T07:49:11;16.30;34.50
516;DHT22;244;48.508;9.052;2023-05-10T07:51:37;16.50;34.10
516;DHT22;244;48.508;9.052;2023-05-10T07:54:06;16.50;33.90
516;DHT22;244;48.508;9.052;2023-05-10T07:56:33;16.60;33.80
516;DHT22;244;48.508;9.052;2023-05-10T07:59:01;16.70;33.90
516;DHT22;244;48.508;9.052;2023-05-10T08:01:31;16.80;33.80
516;DHT22;244;48.508;9.052;2023-05-10T08:03:58;17.00;33.90
516;DHT22;244;48.508;9.052;2023-05-10T08:06:26;17.20;33.70
516;DHT22;244;48.508;9.052;2023-05-10T08:08:55;17.30;33.40
516;DHT22;244;48.508;9.052;2023-05-10T08:11:23;17.40;33.20
516;DHT22;244;48.508;9.052;2023-05-10T08:13:50;17.40;32.90
516;DHT22;244;48.508;9.052;2023-05-10T08:16:18;17.40;32.40
516;DHT22;244;48.508;9.052;2023-05-10T08:18:47;17.40;32.60
516;DHT22;244;48.508;9.052;2023-05-10T08:21:14;17.50;32.60
516;DHT22;244;48.508;9.052;2023-05-10T08:23:42;17.60;32.70
516;DHT22;244;48.508;9.052;2023-05-10T08:26:09;17.70;32.80
516;DHT22;244;48.508;9.052;2023-05-10T08:28:36;17.80;32.90
516;DHT22;244;48.508;9.052;2023-05-10T08:31:04;17.90;32.50
516;DHT22;244;48.508;9.052;2023-05-10T08:33:31;18.00;32.40
516;DHT22;244;48.508;9.052;2023-05-10T08:36:00;18.10;31.80
516;DHT22;244;48.508;9.052;2023-05-10T08:38:27;18.30;31.50
516;DHT22;244;48.508;9.052;2023-05-10T08:40:55;18.30;30.70
516;DHT22;244;48.508;9.052;2023-05-10T08:43:26;18.50;30.30
516;DHT22;244;48.508;9.052;2023-05-10T08:45:55;18.60;29.80
516;DHT22;244;48.508;9.052;2023-05-10T08:48:23;18.80;29.50
516;DHT22;244;48.508;9.052;2023-05-10T08:50:53;18.80;29.00
516;DHT22;244;48.508;9.052;2023-05-10T08:53:24;18.90;28.90
516;DHT22;244;48.508;9.052;2023-05-10T08:55:53;19.00;28.60
516;DHT22;244;48.508;9.052;2023-05-10T08:58:20;19.10;28.50
516;DHT22;244;48.508;9.052;2023-05-10T09:00:49;19.20;28.30
516;DHT22;244;48.508;9.052;2023-05-10T09:03:16;19.20;27.90
516;DHT22;244;48.508;9.052;2023-05-10T09:05:44;19.30;27.60
516;DHT22;244;48.508;9.052;2023-05-10T09:08:11;19.40;27.60
516;DHT22;244;48.508;9.052;2023-05-10T09:10:41;19.50;27.30
516;DHT22;244;48.508;9.052;2023-05-10T09:13:10;19.70;27.20
516;DHT22;244;48.508;9.052;2023-05-10T09:15:38;19.80;26.60
516;DHT22;244;48.508;9.052;2023-05-10T09:18:05;19.90;25.90
516;DHT22;244;48.508;9.052;2023-05-10T09:20:32;19.90;25.70
516;DHT22;244;48.508;9.052;2023-05-10T09:22:59;19.90;25.10
516;DHT22;244;48.508;9.052;2023-05-10T09:25:26;19.90;24.70
516;DHT22;244;48.508;9.052;2023-05-10T09:27:55;20.00;24.70
516;DHT22;244;48.508;9.052;2023-05-10T09:30:26;20.10;24.50
516;DHT22;244;48.508;9.052;2023-05-10T09:32:54;20.20;24.50
516;DHT22;244;48.508;9.052;2023-05-10T09:35:23;20.30;23.80
516;DHT22;244;48.508;9.052;2023-05-10T09:37:52;20.50;24.10
516;DHT22;244;48.508;9.052;2023-05-10T09:40:21;20.60;23.00
516;DHT22;244;48.508;9.052;2023-05-10T09:42:54;20.70;23.00
516;DHT22;244;48.508;9.052;2023-05-10T09:45:22;20.70;23.20
516;DHT22;244;48.508;9.052;2023-05-10T09:47:49;20.90;23.40
516;DHT22;244;48.508;9.052;2023-05-10T09:50:16;21.00;23.10
516;DHT22;244;48.508;9.052;2023-05-10T09:52:48;21.00;22.60
516;DHT22;244;48.508;9.052;2023-05-10T09:55:17;21.00;22.30
516;DHT22;244;48.508;9.052;2023-05-10T09:57:45;21.00;21.90
516;DHT22;244;48.508;9.052;2023-05-10T10:00:18;20.90;22.80
516;DHT22;244;48.508;9.052;2023-05-10T10:02:47;20.70;22.10
516;DHT22;244;48.508;9.052;2023-05-10T10:05:14;20.40;22.50
516;DHT22;244;48.508;9.052;2023-05-10T10:07:41;20.00;21.60
516;DHT22;244;48.508;9.052;2023-05-10T10:10:09;19.80;21.50
516;DHT22;244;48.508;9.052;2023-05-10T10:12:39;19.70;21.40
516;DHT22;244;48.508;9.052;2023-05-10T10:15:08;19.70;21.40
516;DHT22;244;48.508;9.052;2023-05-10T10:17:37;19.80;21.50
516;DHT22;244;48.508;9.052;2023-05-10T10:20:06;19.80;21.50
516;DHT22;244;48.508;9.052;2023-05-10T10:22:34;19.80;21.50
516;DHT22;244;48.508;9.052;2023-05-10T10:25:01;20.00;21.60
516;DHT22;244;48.508;9.052;2023-05-10T10:27:45;20.10;21.70
516;DHT22;244;48.508;9.052;2023-05-10T10:30:23;20.30;21.80
516;DHT22;244;48.508;9.052;2023-05-10T10:33:06;20.40;21.90
516;DHT22;244;48.508;9.052;2023-05-10T10:35:36;20.60;22.10
516;DHT22;244;48.508;9.052;2023-05-10T10:38:04;20.80;21.60
516;DHT22;244;48.508;9.052;2023-05-10T10:40:32;21.00;21.50
516;DHT22;244;48.508;9.052;2023-05-10T10:43:24;21.10;21.40
516;DHT22;244;48.508;9.052;2023-05-10T10:46:10;21.40;21.30
516;DHT22;244;48.508;9.052;2023-05-10T10:48:38;21.70;21.30
516;DHT22;244;48.508;9.052;2023-05-10T10:51:05;22.00;20.90
516;DHT22;244;48.508;9.052;2023-05-10T10:53:32;22.10;20.70
516;DHT22;244;48.508;9.052;2023-05-10T10:56:06;22.10;20.60
516;DHT22;244;48.508;9.052;2023-05-10T10:58:37;22.00;21.00
516;DHT22;244;48.508;9.052;2023-05-10T11:01:14;21.60;20.50
516;DHT22;244;48.508;9.052;2023-05-10T11:04:17;21.20;18.00
516;DHT22;244;48.508;9.052;2023-05-10T11:06:44;20.70;16.90
516;DHT22;244;48.508;9.052;2023-05-10T11:09:12;20.30;15.80
516;DHT22;244;48.508;9.052;2023-05-10T11:11:50;19.90;16.30
516;DHT22;244;48.508;9.052;2023-05-10T11:14:21;19.50;16.10
516;DHT22;244;48.508;9.052;2023-05-10T11:16:48;19.30;16.70
516;DHT22;244;48.508;9.052;2023-05-10T11:19:16;19.20;17.30
516;DHT22;244;48.508;9.052;2023-05-10T11:21:48;19.20;17.00
516;DHT22;244;48.508;9.052;2023-05-10T11:24:16;19.10;17.70
516;DHT22;244;48.508;9.052;2023-05-10T11:26:43;19.00;17.50
516;DHT22;244;48.508;9.052;2023-05-10T11:29:12;18.90;17.80
516;DHT22;244;48.508;9.052;2023-05-10T11:31:44;18.60;18.30
516;DHT22;244;48.508;9.052;2023-05-10T11:34:22;18.40;19.50
516;DHT22;244;48.508;9.052;2023-05-10T11:36:51;18.10;20.40
516;DHT22;244;48.508;9.052;2023-05-10T11:39:19;17.80;20.10
516;DHT22;244;48.508;9.052;2023-05-10T11:41:48;17.50;19.90
516;DHT22;244;48.508;9.052;2023-05-10T11:44:15;17.40;20.80
516;DHT22;244;48.508;9.052;2023-05-10T11:46:44;17.30;20.70
516;DHT22;244;48.508;9.052;2023-05-10T11:49:11;17.40;21.00
516;DHT22;244;48.508;9.052;2023-05-10T11:51:39;17.50;20.70
516;DHT22;244;48.508;9.052;2023-05-10T11:54:08;17.60;20.70
516;DHT22;244;48.508;9.052;2023-05-10T11:56:36;17.80;21.00
516;DHT22;244;48.508;9.052;2023-05-10T11:59:04;18.10;20.90
516;DHT22;244;48.508;9.052;2023-05-10T12:01:31;18.50;19.50
516;DHT22;244;48.508;9.052;2023-05-10T12:04:00;18.90;19.90
516;DHT22;244;48.508;9.052;2023-05-10T12:06:28;19.30;20.10
516;DHT22;244;48.508;9.052;2023-05-10T12:08:57;19.50;20.00
516;DHT22;244;48.508;9.052;2023-05-10T12:11:25;19.70;19.30
516;DHT22;244;48.508;9.052;2023-05-10T12:13:53;19.90;19.40
516;DHT22;244;48.508;9.052;2023-05-10T12:40:34;18.60;21.20
516;DHT22;244;48.508;9.052;2023-05-10T12:43:01;18.70;21.10
516;DHT22;244;48.508;9.052;2023-05-10T12:45:29;19.00;21.20
516;DHT22;244;48.508;9.052;2023-05-10T12:47:56;19.20;21.10
516;DHT22;244;48.508;9.052;2023-05-10T12:50:23;19.40;20.60
516;DHT22;244;48.508;9.052;2023-05-10T12:52:50;19.60;20.50
516;DHT22;244;48.508;9.052;2023-05-10T12:55:18;19.90;20.30
516;DHT22;244;48.508;9.052;2023-05-10T12:57:46;20.20;19.90
516;DHT22;244;48.508;9.052;2023-05-10T13:00:14;20.30;19.70
516;DHT22;244;48.508;9.052;2023-05-10T13:02:41;20.50;19.60
516;DHT22;244;48.508;9.052;2023-05-10T13:05:08;20.60;19.10
516;DHT22;244;48.508;9.052;2023-05-10T13:07:35;20.70;19.20
516;DHT22;244;48.508;9.052;2023-05-10T13:10:02;20.80;19.10
516;DHT22;244;48.508;9.052;2023-05-10T13:12:30;20.90;19.00
516;DHT22;244;48.508;9.052;2023-05-10T13:14:58;21.10;18.90
516;DHT22;244;48.508;9.052;2023-05-10T13:17:25;21.40;18.50
516;DHT22;244;48.508;9.052;2023-05-10T13:19:52;21.60;18.30
516;DHT22;244;48.508;9.052;2023-05-10T13:22:19;21.60;18.00
516;DHT22;244;48.508;9.052;2023-05-10T13:24:46;21.70;17.70
516;DHT22;244;48.508;9.052;2023-05-10T13:27:13;21.80;18.30
516;DHT22;244;48.508;9.052;2023-05-10T13:29:40;21.90;17.60
516;DHT22;244;48.508;9.052;2023-05-10T13:32:08;22.10;16.90
516;DHT22;244;48.508;9.052;2023-05-10T13:34:35;22.30;16.60
516;DHT22;244;48.508;9.052;2023-05-10T13:37:02;22.40;16.40
516;DHT22;244;48.508;9.052;2023-05-10T13:39:29;22.50;16.30
516;DHT22;244;48.508;9.052;2023-05-10T13:41:58;22.50;16.10
516;DHT22;244;48.508;9.052;2023-05-10T13:44:25;22.60;15.70
516;DHT22;244;48.508;9.052;2023-05-10T13:46:52;22.60;15.70
516;DHT22;244;48.508;9.052;2023-05-10T13:49:22;22.60;15.70
516;DHT22;244;48.508;9.052;2023-05-10T13:51:49;22.60;15.50
516;DHT22;244;48.508;9.052;2023-05-10T13:54:16;22.50;15.30
516;DHT22;244;48.508;9.052;2023-05-10T13:56:45;22.40;15.20
516;DHT22;244;48.508;9.052;2023-05-10T13:59:12;22.30;15.20
516;DHT22;244;48.508;9.052;2023-05-10T14:01:41;22.20;15.30
516;DHT22;244;48.508;9.052;2023-05-10T14:04:08;22.20;14.90
516;DHT22;244;48.508;9.052;2023-05-10T14:06:37;22.30;14.70
516;DHT22;244;48.508;9.052;2023-05-10T14:09:04;22.40;14.30
516;DHT22;244;48.508;9.052;2023-05-10T14:11:31;22.50;14.40
516;DHT22;244;48.508;9.052;2023-05-10T14:13:57;22.50;14.40
516;DHT22;244;48.508;9.052;2023-05-10T14:16:24;22.50;15.00
516;DHT22;244;48.508;9.052;2023-05-10T14:18:52;22.50;13.80
516;DHT22;244;48.508;9.052;2023-05-10T14:21:19;22.50;13.40
516;DHT22;244;48.508;9.052;2023-05-10T14:23:47;22.60;13.50
516;DHT22;244;48.508;9.052;2023-05-10T14:26:14;22.60;13.40
516;DHT22;244;48.508;9.052;2023-05-10T14:28:41;22.50;13.40
516;DHT22;244;48.508;9.052;2023-05-10T14:31:08;22.30;13.30
516;DHT22;244;48.508;9.052;2023-05-10T14:33:35;22.20;12.70
516;DHT22;244;48.508;9.052;2023-05-10T14:36:02;21.90;12.00
516;DHT22;244;48.508;9.052;2023-05-10T14:38:29;21.70;11.60
516;DHT22;244;48.508;9.052;2023-05-10T14:40:58;21.60;11.50
516;DHT22;244;48.508;9.052;2023-05-10T14:43:25;21.50;11.50
516;DHT22;244;48.508;9.052;2023-05-10T14:45:53;21.40;11.70
516;DHT22;244;48.508;9.052;2023-05-10T14:48:20;21.40;11.50
516;DHT22;244;48.508;9.052;2023-05-10T14:50:46;21.40;11.60
516;DHT22;244;48.508;9.052;2023-05-10T14:53:15;21.40;10.70
516;DHT22;244;48.508;9.052;2023-05-10T14:55:42;21.40;11.20
516;DHT22;244;48.508;9.052;2023-05-10T14:58:10;21.50;11.10
516;DHT22;244;48.508;9.052;2023-05-10T15:00:37;21.60;11.10
516;DHT22;244;48.508;9.052;2023-05-10T15:03:04;21.70;10.50
516;DHT22;244;48.508;9.052;2023-05-10T15:05:31;21.80;10.50
516;DHT22;244;48.508;9.052;2023-05-10T15:07:58;21.90;9.90
516;DHT22;244;48.508;9.052;2023-05-10T15:10:25;21.90;9.80
516;DHT22;244;48.508;9.052;2023-05-10T15:12:52;21.90;9.40
516;DHT22;244;48.508;9.052;2023-05-10T15:15:21;21.90;9.50
516;DHT22;244;48.508;9.052;2023-05-10T15:17:48;21.90;9.80
516;DHT22;244;48.508;9.052;2023-05-10T15:20:15;21.90;10.00
516;DHT22;244;48.508;9.052;2023-05-10T15:22:42;21.80;10.00
516;DHT22;244;48.508;9.052;2023-05-10T15:25:09;21.80;10.00
516;DHT22;244;48.508;9.052;2023-05-10T15:27:36;21.80;9.90
516;DHT22;244;48.508;9.052;2023-05-10T15:30:03;21.70;10.00
516;DHT22;244;48.508;9.052;2023-05-10T15:32:32;21.70;10.10
516;DHT22;244;48.508;9.052;2023-05-10T15:34:59;21.60;9.90
516;DHT22;244;48.508;9.052;2023-05-10T15:37:26;21.50;9.10
516;DHT22;244;48.508;9.052;2023-05-10T15:39:53;21.40;9.20
516;DHT22;244;48.508;9.052;2023-05-10T15:42:19;21.40;9.20
516;DHT22;244;48.508;9.052;2023-05-10T15:44:46;21.30;9.30
516;DHT22;244;48.508;9.052;2023-05-10T15:47:15;21.30;9.30
516;DHT22;244;48.508;9.052;2023-05-10T15:49:44;21.20;9.20
516;DHT22;244;48.508;9.052;2023-05-10T15:52:11;21.10;9.20
516;DHT22;244;48.508;9.052;2023-05-10T15:54:39;21.00;9.20
516;DHT22;244;48.508;9.052;2023-05-10T15:57:06;20.80;9.20
516;DHT22;244;48.508;9.052;2023-05-10T15:59:33;20.60;9.40
516;DHT22;244;48.508;9.052;2023-05-10T16:02:00;20.50;10.10
516;DHT22;244;48.508;9.052;2023-05-10T16:04:28;20.30;9.60
516;DHT22;244;48.508;9.052;2023-05-10T16:06:57;20.20;9.90
516;DHT22;244;48.508;9.052;2023-05-10T16:09:28;20.00;9.90
516;DHT22;244;48.508;9.052;2023-05-10T16:11:58;20.00;10.00
516;DHT22;244;48.508;9.052;2023-05-10T16:14:26;19.90;10.00
516;DHT22;244;48.508;9.052;2023-05-10T16:16:53;19.80;10.20
516;DHT22;244;48.508;9.052;2023-05-10T16:19:20;19.70;10.20
516;DHT22;244;48.508;9.052;2023-05-10T16:21:48;19.60;10.30
516;DHT22;244;48.508;9.052;2023-05-10T16:24:16;19.40;10.30
516;DHT22;244;48.508;9.052;2023-05-10T16:26:44;19.30;10.30
516;DHT22;244;48.508;9.052;2023-05-10T16:29:11;19.20;10.30
516;DHT22;244;48.508;9.052;2023-05-10T16:31:38;19.10;10.20
516;DHT22;244;48.508;9.052;2023-05-10T16:34:05;19.10;10.30
516;DHT22;244;48.508;9.052;2023-05-10T16:36:32;19.10;10.30
516;DHT22;244;48.508;9.052;2023-05-10T16:38:59;19.00;10.30
516;DHT22;244;48.508;9.052;2023-05-10T16:41:32;19.00;10.30
516;DHT22;244;48.508;9.052;2023-05-10T16:44:00;19.00;10.40
516;DHT22;244;48.508;9.052;2023-05-10T16:46:27;18.90;10.50
516;DHT22;244;48.508;9.052;2023-05-10T16:48:54;18.80;10.50
516;DHT22;244;48.508;9.052;2023-05-10T16:51:20;18.70;10.60
516;DHT22;244;48.508;9.052;2023-05-10T16:53:47;18.60;10.70
516;DHT22;244;48.508;9.052;2023-05-10T16:56:14;18.50;10.80
516;DHT22;244;48.508;9.052;2023-05-10T16:58:45;18.40;10.90
516;DHT22;244;48.508;9.052;2023-05-10T17:01:14;18.30;11.10
516;DHT22;244;48.508;9.052;2023-05-10T17:03:41;18.10;11.20
516;DHT22;244;48.508;9.052;2023-05-10T17:06:08;18.00;11.30
516;DHT22;244;48.508;9.052;2023-05-10T17:08:35;17.90;11.30
516;DHT22;244;48.508;9.052;2023-05-10T17:11:02;17.80;11.20